Weather at Aboyne Airfield

Public forecast

Using degrees Celsius for public forecast. Weather courtesy of forecast.io.

Closest aviation weather report (METAR) to Aboyne Airfield

Closest report is Aberdeen Dyce Airport, 22.2 nm (41.2 km) ENE. Retrieved 2021/06/15 14:20 UTC (21 minutes ago):

EGPD 151420Z AUTO 15011KT 110V190 9999 FEW040 12/07 Q1016 NOSIG

Closest aviation forecast (TAF) to Aboyne Airfield

Closest forecast is Aberdeen Dyce Airport, 22.2 nm (41.2 km) ENE. Retrieved 2021/06/15 12:00 UTC (3 hours ago):

TAF EGPD 151058Z 1512/1612 15012KT 9999 FEW040 PROB30 TEMPO 1512/1603 16015G25KT PROB40 TEMPO 1514/1521 8000 -RA PROB40 TEMPO 1521/1604 6000 RA PROB40 TEMPO 1601/1607 BKN012 BECMG 1606/1609 27008KT BECMG 1609/1612 18010KT